sensor_id;sensor_type;location;lat;lon;timestamp;pressure;altitude;pressure_sealevel;temperature;humidity
13732;BME280;6937;56.096;12.664;2023-01-26T00:00:54;101511.91;;;1.74;100.00
13732;BME280;6937;56.096;12.664;2023-01-26T00:03:20;101521.47;;;1.78;100.00
13732;BME280;6937;56.096;12.664;2023-01-26T00:05:46;101518.84;;;1.78;100.00
13732;BME280;6937;56.096;12.664;2023-01-26T00:08:12;101520.56;;;1.79;100.00
13732;BME280;6937;56.096;12.664;2023-01-26T00:10:39;101511.75;;;1.80;100.00
13732;BME280;6937;56.096;12.664;2023-01-26T00:13:05;101509.97;;;1.81;100.00
13732;BME280;6937;56.096;12.664;2023-01-26T00:15:32;101509.97;;;1.82;100.00
13732;BME280;6937;56.096;12.664;2023-01-26T00:17:59;101511.72;;;1.82;100.00
13732;BME280;6937;56.096;12.664;2023-01-26T00:20:25;101493.38;;;1.77;100.00
13732;BME280;6937;56.096;12.664;2023-01-26T00:22:50;101495.91;;;1.82;100.00
13732;BME280;6937;56.096;12.664;2023-01-26T00:25:16;101499.44;;;1.81;100.00
13732;BME280;6937;56.096;12.664;2023-01-26T00:27:41;101502.06;;;1.81;100.00
13732;BME280;6937;56.096;12.664;2023-01-26T00:30:07;101486.22;;;1.82;100.00
13732;BME280;6937;56.096;12.664;2023-01-26T00:32:34;101495.81;;;1.85;100.00
13732;BME280;6937;56.096;12.664;2023-01-26T00:34:59;101483.72;;;1.76;100.00
13732;BME280;6937;56.096;12.664;2023-01-26T00:37:25;101495.81;;;1.85;100.00
13732;BME280;6937;56.096;12.664;2023-01-26T00:39:50;101460.00;;;1.76;100.00
13732;BME280;6937;56.096;12.664;2023-01-26T00:42:15;101482.72;;;1.83;100.00
13732;BME280;6937;56.096;12.664;2023-01-26T00:44:42;101472.09;;;1.85;100.00
13732;BME280;6937;56.096;12.664;2023-01-26T00:47:09;101465.06;;;1.85;100.00
13732;BME280;6937;56.096;12.664;2023-01-26T00:49:35;101459.00;;;1.82;100.00
13732;BME280;6937;56.096;12.664;2023-01-26T00:52:00;101454.63;;;1.82;100.00
13732;BME280;6937;56.096;12.664;2023-01-26T00:54:26;101458.31;;;1.75;100.00
13732;BME280;6937;56.096;12.664;2023-01-26T00:56:52;101467.78;;;1.82;100.00
13732;BME280;6937;56.096;12.664;2023-01-26T00:59:18;101467.81;;;1.81;100.00
13732;BME280;6937;56.096;12.664;2023-01-26T01:01:43;101454.63;;;1.82;100.00
13732;BME280;6937;56.096;12.664;2023-01-26T01:04:09;101456.28;;;1.86;100.00
13732;BME280;6937;56.096;12.664;2023-01-26T01:06:34;101438.94;;;1.76;100.00
13732;BME280;6937;56.096;12.664;2023-01-26T01:09:00;101441.53;;;1.79;100.00
13732;BME280;6937;56.096;12.664;2023-01-26T01:11:25;101458.06;;;1.84;100.00
13732;BME280;6937;56.096;12.664;2023-01-26T01:13:50;101458.84;;;1.88;100.00
13732;BME280;6937;56.096;12.664;2023-01-26T01:16:16;101459.69;;;1.90;100.00
13732;BME280;6937;56.096;12.664;2023-01-26T01:18:42;101458.84;;;1.88;100.00
13732;BME280;6937;56.096;12.664;2023-01-26T01:21:10;101445.66;;;1.88;100.00
13732;BME280;6937;56.096;12.664;2023-01-26T01:23:36;101451.81;;;1.88;100.00
13732;BME280;6937;56.096;12.664;2023-01-26T01:26:02;101432.66;;;1.82;100.00
13732;BME280;6937;56.096;12.664;2023-01-26T01:28:28;101441.25;;;1.90;100.00
13732;BME280;6937;56.096;12.664;2023-01-26T01:30:53;101431.91;;;1.77;100.00
13732;BME280;6937;56.096;12.664;2023-01-26T01:33:18;101450.09;;;1.87;100.00
13732;BME280;6937;56.096;12.664;2023-01-26T01:35:55;101444.75;;;1.90;100.00
13732;BME280;6937;56.096;12.664;2023-01-26T01:38:20;101441.25;;;1.88;100.00
13732;BME280;6937;56.096;12.664;2023-01-26T01:40:46;101426.50;;;1.83;100.00
13732;BME280;6937;56.096;12.664;2023-01-26T01:43:11;101441.25;;;1.90;100.00
13732;BME280;6937;56.096;12.664;2023-01-26T01:45:44;101422.91;;;1.85;100.00
13732;BME280;6937;56.096;12.664;2023-01-26T01:48:16;101429.75;;;1.92;100.00
13732;BME280;6937;56.096;12.664;2023-01-26T01:50:43;101421.81;;;1.94;100.00
13732;BME280;6937;56.096;12.664;2023-01-26T01:53:12;101411.25;;;1.94;100.00
13732;BME280;6937;56.096;12.664;2023-01-26T01:55:40;101414.72;;;1.96;100.00
13732;BME280;6937;56.096;12.664;2023-01-26T01:58:06;101400.81;;;1.91;100.00
13732;BME280;6937;56.096;12.664;2023-01-26T02:00:32;101404.16;;;1.96;100.00
13732;BME280;6937;56.096;12.664;2023-01-26T02:03:03;101389.44;;;1.89;100.00
13732;BME280;6937;56.096;12.664;2023-01-26T02:05:49;101391.09;;;1.91;100.00
13732;BME280;6937;56.096;12.664;2023-01-26T02:08:17;101405.03;;;1.97;100.00
13732;BME280;6937;56.096;12.664;2023-01-26T02:10:45;101392.72;;;1.97;100.00
13732;BME280;6937;56.096;12.664;2023-01-26T02:13:14;101392.63;;;2.00;100.00
13732;BME280;6937;56.096;12.664;2023-01-26T02:15:40;101389.13;;;2.00;100.00
13732;BME280;6937;56.096;12.664;2023-01-26T02:18:06;101387.44;;;1.99;100.00
13732;BME280;6937;56.096;12.664;2023-01-26T02:25:35;101375.09;;;1.99;100.00
13732;BME280;6937;56.096;12.664;2023-01-26T02:28:04;101365.41;;;2.00;100.00
13732;BME280;6937;56.096;12.664;2023-01-26T02:30:30;101355.78;;;1.99;100.00
13732;BME280;6937;56.096;12.664;2023-01-26T02:32:55;101359.97;;;2.06;100.00
13732;BME280;6937;56.096;12.664;2023-01-26T02:35:21;101359.97;;;2.06;100.00
13732;BME280;6937;56.096;12.664;2023-01-26T02:37:47;101339.97;;;1.99;100.00
13732;BME280;6937;56.096;12.664;2023-01-26T02:40:17;101353.78;;;2.07;100.00
13732;BME280;6937;56.096;12.664;2023-01-26T02:42:46;101352.94;;;2.06;100.00
13732;BME280;6937;56.096;12.664;2023-01-26T02:45:13;101348.50;;;2.07;100.00
13732;BME280;6937;56.096;12.664;2023-01-26T02:47:39;101358.13;;;2.09;100.00
13732;BME280;6937;56.096;12.664;2023-01-26T02:50:06;101366.03;;;2.09;100.00
13732;BME280;6937;56.096;12.664;2023-01-26T02:52:32;101348.50;;;2.07;100.00
13732;BME280;6937;56.096;12.664;2023-01-26T02:54:58;101363.25;;;2.14;100.00
13732;BME280;6937;56.096;12.664;2023-01-26T02:57:42;101360.66;;;2.12;100.00
13732;BME280;6937;56.096;12.664;2023-01-26T03:00:10;101359.72;;;2.15;100.00
13732;BME280;6937;56.096;12.664;2023-01-26T03:02:36;101364.94;;;2.16;100.00
13732;BME280;6937;56.096;12.664;2023-01-26T03:05:02;101361.47;;;2.14;100.00
13732;BME280;6937;56.096;12.664;2023-01-26T03:07:29;101360.53;;;2.17;100.00
13732;BME280;6937;56.096;12.664;2023-01-26T03:09:54;101359.72;;;2.15;100.00
13732;BME280;6937;56.096;12.664;2023-01-26T03:12:19;101341.22;;;2.16;100.00
13732;BME280;6937;56.096;12.664;2023-01-26T03:14:45;101358.63;;;2.22;100.00
13732;BME280;6937;56.096;12.664;2023-01-26T03:17:10;101356.03;;;2.20;100.00
13732;BME280;6937;56.096;12.664;2023-01-26T03:19:35;101352.44;;;2.23;100.00
13732;BME280;6937;56.096;12.664;2023-01-26T03:22:19;101350.59;;;2.26;100.00
13732;BME280;6937;56.096;12.664;2023-01-26T03:25:03;101345.31;;;2.26;100.00
13732;BME280;6937;56.096;12.664;2023-01-26T03:27:48;101336.59;;;2.24;100.00
13732;BME280;6937;56.096;12.664;2023-01-26T03:30:16;101340.81;;;2.30;100.00
13732;BME280;6937;56.096;12.664;2023-01-26T03:32:42;101333.09;;;2.24;100.00
13732;BME280;6937;56.096;12.664;2023-01-26T03:35:08;101328.72;;;2.23;100.00
13732;BME280;6937;56.096;12.664;2023-01-26T03:37:42;101346.09;;;2.30;100.00
13732;BME280;6937;56.096;12.664;2023-01-26T03:40:10;101344.34;;;2.29;100.00
13732;BME280;6937;56.096;12.664;2023-01-26T03:42:54;101340.72;;;2.33;100.00
13732;BME280;6937;56.096;12.664;2023-01-26T03:45:38;101353.06;;;2.32;100.00
13732;BME280;6937;56.096;12.664;2023-01-26T03:48:22;101364.41;;;2.34;100.00
13732;BME280;6937;56.096;12.664;2023-01-26T03:51:06;101359.13;;;2.36;100.00
13732;BME280;6937;56.096;12.664;2023-01-26T03:53:50;101346.84;;;2.33;100.00
13732;BME280;6937;56.096;12.664;2023-01-26T03:56:34;101344.06;;;2.39;100.00
13732;BME280;6937;56.096;12.664;2023-01-26T03:59:04;101337.06;;;2.38;100.00
13732;BME280;6937;56.096;12.664;2023-01-26T04:01:42;101343.13;;;2.40;100.00
13732;BME280;6937;56.096;12.664;2023-01-26T04:04:25;101336.22;;;2.36;100.00
13732;BME280;6937;56.096;12.664;2023-01-26T04:07:09;101319.59;;;2.34;100.00
13732;BME280;6937;56.096;12.664;2023-01-26T04:09:53;101327.47;;;2.36;100.00
13732;BME280;6937;56.096;12.664;2023-01-26T04:12:19;101343.91;;;2.44;100.00
13732;BME280;6937;56.096;12.664;2023-01-26T04:14:46;101342.97;;;2.47;100.00
13732;BME280;6937;56.096;12.664;2023-01-26T04:17:30;101343.91;;;2.44;100.00
13732;BME280;6937;56.096;12.664;2023-01-26T04:20:14;101346.31;;;2.52;100.00
13732;BME280;6937;56.096;12.664;2023-01-26T04:22:58;101338.47;;;2.50;100.00
13732;BME280;6937;56.096;12.664;2023-01-26T04:25:23;101326.84;;;2.56;100.00
13732;BME280;6937;56.096;12.664;2023-01-26T04:27:49;101328.56;;;2.57;100.00
13732;BME280;6937;56.096;12.664;2023-01-26T04:30:16;101322.63;;;2.50;100.00
13732;BME280;6937;56.096;12.664;2023-01-26T04:32:42;101332.06;;;2.59;100.00
13732;BME280;6937;56.096;12.664;2023-01-26T04:35:08;101331.13;;;2.60;100.00
13732;BME280;6937;56.096;12.664;2023-01-26T04:37:34;101314.47;;;2.58;100.00
13732;BME280;6937;56.096;12.664;2023-01-26T04:39:59;101302.41;;;2.51;100.00
13732;BME280;6937;56.096;12.664;2023-01-26T04:42:25;101303.94;;;2.58;100.00
13732;BME280;6937;56.096;12.664;2023-01-26T04:44:51;101309.09;;;2.61;100.00
13732;BME280;6937;56.096;12.664;2023-01-26T04:47:17;101297.78;;;2.57;100.00
13732;BME280;6937;56.096;12.664;2023-01-26T04:49:43;101301.16;;;2.62;100.00
13732;BME280;6937;56.096;12.664;2023-01-26T04:52:08;101302.97;;;2.60;100.00
13732;BME280;6937;56.096;12.664;2023-01-26T04:54:34;101305.66;;;2.59;100.00
13732;BME280;6937;56.096;12.664;2023-01-26T04:56:59;101299.53;;;2.58;100.00
13732;BME280;6937;56.096;12.664;2023-01-26T04:59:25;101300.31;;;2.60;100.00
13732;BME280;6937;56.096;12.664;2023-01-26T05:01:50;101309.09;;;2.61;100.00
13732;BME280;6937;56.096;12.664;2023-01-26T05:04:15;101288.28;;;2.52;100.00
13732;BME280;6937;56.096;12.664;2023-01-26T05:06:41;101292.59;;;2.54;100.00
13732;BME280;6937;56.096;12.664;2023-01-26T05:09:07;101304.72;;;2.60;100.00
13732;BME280;6937;56.096;12.664;2023-01-26T05:11:32;101316.91;;;2.64;100.00
13732;BME280;6937;56.096;12.664;2023-01-26T05:13:58;101311.72;;;2.62;100.00
13732;BME280;6937;56.096;12.664;2023-01-26T05:16:23;101287.22;;;2.57;100.00
13732;BME280;6937;56.096;12.664;2023-01-26T05:18:49;101294.91;;;2.65;100.00
13732;BME280;6937;56.096;12.664;2023-01-26T05:21:14;101294.91;;;2.65;100.00
13732;BME280;6937;56.096;12.664;2023-01-26T05:23:40;101303.72;;;2.64;100.00
13732;BME280;6937;56.096;12.664;2023-01-26T05:26:06;101286.38;;;2.57;100.00
13732;BME280;6937;56.096;12.664;2023-01-26T05:28:33;101299.28;;;2.66;100.00
13732;BME280;6937;56.096;12.664;2023-01-26T05:30:58;101300.94;;;2.68;100.00
13732;BME280;6937;56.096;12.664;2023-01-26T05:33:24;101296.66;;;2.66;100.00
13732;BME280;6937;56.096;12.664;2023-01-26T05:35:51;101289.66;;;2.63;100.00
13732;BME280;6937;56.096;12.664;2023-01-26T05:38:17;101275.69;;;2.61;100.00
13732;BME280;6937;56.096;12.664;2023-01-26T05:40:42;101282.59;;;2.65;100.00
13732;BME280;6937;56.096;12.664;2023-01-26T05:43:09;101285.22;;;2.65;100.00
13732;BME280;6937;56.096;12.664;2023-01-26T05:45:34;101288.66;;;2.67;100.00
13732;BME280;6937;56.096;12.664;2023-01-26T05:48:00;101293.91;;;2.69;100.00
13732;BME280;6937;56.096;12.664;2023-01-26T05:50:27;101307.97;;;2.69;100.00
13732;BME280;6937;56.096;12.664;2023-01-26T05:52:52;101300.03;;;2.69;100.00
13732;BME280;6937;56.096;12.664;2023-01-26T05:55:17;101285.84;;;2.73;100.00
13732;BME280;6937;56.096;12.664;2023-01-26T05:57:43;101277.00;;;2.74;100.00
13732;BME280;6937;56.096;12.664;2023-01-26T06:00:09;101273.41;;;2.77;100.00
13732;BME280;6937;56.096;12.664;2023-01-26T06:02:35;101268.22;;;2.74;100.00
13732;BME280;6937;56.096;12.664;2023-01-26T06:05:00;101280.31;;;2.81;100.00
13732;BME280;6937;56.096;12.664;2023-01-26T06:07:26;101263.75;;;2.76;100.00
13732;BME280;6937;56.096;12.664;2023-01-26T06:09:51;101283.78;;;2.81;100.00
13732;BME280;6937;56.096;12.664;2023-01-26T06:12:19;101285.44;;;2.85;100.00
13732;BME280;6937;56.096;12.664;2023-01-26T06:14:45;101283.72;;;2.84;100.00
13732;BME280;6937;56.096;12.664;2023-01-26T06:17:11;101283.66;;;2.86;100.00
13732;BME280;6937;56.096;12.664;2023-01-26T06:19:37;101267.81;;;2.86;100.00
13732;BME280;6937;56.096;12.664;2023-01-26T06:22:06;101254.50;;;2.89;100.00
13732;BME280;6937;56.096;12.664;2023-01-26T06:24:31;101252.72;;;2.91;100.00
13732;BME280;6937;56.096;12.664;2023-01-26T06:26:58;101204.44;;;2.87;100.00
13732;BME280;6937;56.096;12.664;2023-01-26T06:29:24;101207.72;;;2.94;100.00
13732;BME280;6937;56.096;12.664;2023-01-26T06:31:49;101191.78;;;2.97;100.00
13732;BME280;6937;56.096;12.664;2023-01-26T06:34:14;101176.16;;;2.91;100.00
13732;BME280;6937;56.096;12.664;2023-01-26T06:36:40;101178.66;;;2.96;100.00
13732;BME280;6937;56.096;12.664;2023-01-26T06:39:05;101167.84;;;3.02;100.00
13732;BME280;6937;56.096;12.664;2023-01-26T06:41:32;101160.91;;;2.99;100.00
13732;BME280;6937;56.096;12.664;2023-01-26T06:43:57;101164.16;;;3.07;100.00
13732;BME280;6937;56.096;12.664;2023-01-26T06:46:23;101185.16;;;3.10;100.00
13732;BME280;6937;56.096;12.664;2023-01-26T06:48:48;101165.75;;;3.11;100.00
13732;BME280;6937;56.096;12.664;2023-01-26T06:53:43;101208.69;;;3.16;100.00
13732;BME280;6937;56.096;12.664;2023-01-26T06:56:11;101223.56;;;3.19;100.00
13732;BME280;6937;56.096;12.664;2023-01-26T06:58:37;101213.94;;;3.18;100.00
13732;BME280;6937;56.096;12.664;2023-01-26T07:01:02;101218.25;;;3.20;100.00
13732;BME280;6937;56.096;12.664;2023-01-26T07:03:28;101235.59;;;3.27;100.00
13732;BME280;6937;56.096;12.664;2023-01-26T07:05:53;101237.34;;;3.28;100.00
13732;BME280;6937;56.096;12.664;2023-01-26T07:08:19;101230.28;;;3.29;100.00
13732;BME280;6937;56.096;12.664;2023-01-26T07:10:44;101231.06;;;3.31;100.00
13732;BME280;6937;56.096;12.664;2023-01-26T07:13:09;101233.56;;;3.35;100.00
13732;BME280;6937;56.096;12.664;2023-01-26T07:15:35;101249.25;;;3.40;100.00
13732;BME280;6937;56.096;12.664;2023-01-26T07:18:00;101237.72;;;3.42;100.00
13732;BME280;6937;56.096;12.664;2023-01-26T07:20:26;101232.44;;;3.42;100.00
13732;BME280;6937;56.096;12.664;2023-01-26T07:22:51;101227.97;;;3.45;100.00
13732;BME280;6937;56.096;12.664;2023-01-26T07:25:18;101234.91;;;3.47;100.00
13732;BME280;6937;56.096;12.664;2023-01-26T07:27:43;101233.81;;;3.53;100.00
13732;BME280;6937;56.096;12.664;2023-01-26T07:30:10;101223.16;;;3.56;100.00
13732;BME280;6937;56.096;12.664;2023-01-26T07:32:36;101221.44;;;3.55;100.00
13732;BME280;6937;56.096;12.664;2023-01-26T07:35:02;101206.56;;;3.52;100.00
13732;BME280;6937;56.096;12.664;2023-01-26T07:37:28;101183.16;;;3.65;100.00
13732;BME280;6937;56.096;12.664;2023-01-26T07:39:54;101203.28;;;3.69;100.00
13732;BME280;6937;56.096;12.664;2023-01-26T07:42:19;101185.69;;;3.68;100.00
13732;BME280;6937;56.096;12.664;2023-01-26T07:44:44;101185.59;;;3.71;100.00
13732;BME280;6937;56.096;12.664;2023-01-26T07:47:10;101171.44;;;3.72;100.00
13732;BME280;6937;56.096;12.664;2023-01-26T07:49:35;101182.44;;;3.84;100.00
13732;BME280;6937;56.096;12.664;2023-01-26T07:52:00;101175.22;;;3.88;100.00
13732;BME280;6937;56.096;12.664;2023-01-26T07:54:26;101177.84;;;3.89;100.00
13732;BME280;6937;56.096;12.664;2023-01-26T07:56:52;101179.25;;;3.98;100.00
13732;BME280;6937;56.096;12.664;2023-01-26T07:59:19;101183.44;;;4.04;100.00
13732;BME280;6937;56.096;12.664;2023-01-26T08:01:44;101185.84;;;4.10;100.00
13732;BME280;6937;56.096;12.664;2023-01-26T08:04:10;101172.50;;;4.13;100.00
13732;BME280;6937;56.096;12.664;2023-01-26T08:06:36;101134.31;;;4.20;100.00
13732;BME280;6937;56.096;12.664;2023-01-26T08:09:02;101137.69;;;4.23;100.00
13732;BME280;6937;56.096;12.664;2023-01-26T08:11:27;101142.78;;;4.28;100.00
13732;BME280;6937;56.096;12.664;2023-01-26T08:13:54;101114.38;;;4.33;100.00
13732;BME280;6937;56.096;12.664;2023-01-26T08:16:19;101137.88;;;4.41;100.00
13732;BME280;6937;56.096;12.664;2023-01-26T08:18:45;101121.84;;;4.44;100.00
13732;BME280;6937;56.096;12.664;2023-01-26T08:21:12;101117.28;;;4.47;100.00
13732;BME280;6937;56.096;12.664;2023-01-26T08:23:38;101138.41;;;4.49;100.00
13732;BME280;6937;56.096;12.664;2023-01-26T08:26:09;101130.34;;;4.52;100.00
13732;BME280;6937;56.096;12.664;2023-01-26T08:28:36;101140.00;;;4.53;100.00
13732;BME280;6937;56.096;12.664;2023-01-26T08:31:05;101123.19;;;4.54;100.00
13732;BME280;6937;56.096;12.664;2023-01-26T08:33:32;101093.16;;;4.55;100.00
13732;BME280;6937;56.096;12.664;2023-01-26T08:36:05;101108.84;;;4.59;100.00
13732;BME280;6937;56.096;12.664;2023-01-26T08:38:31;101102.69;;;4.59;100.00
13732;BME280;6937;56.096;12.664;2023-01-26T08:40:58;101111.31;;;4.64;100.00
13732;BME280;6937;56.096;12.664;2023-01-26T08:43:24;101108.66;;;4.64;100.00
13732;BME280;6937;56.096;12.664;2023-01-26T08:45:49;101115.75;;;4.63;100.00
13732;BME280;6937;56.096;12.664;2023-01-26T08:48:14;101117.47;;;4.64;100.00
13732;BME280;6937;56.096;12.664;2023-01-26T08:50:40;101122.94;;;4.60;100.00
13732;BME280;6937;56.096;12.664;2023-01-26T08:53:05;101114.09;;;4.61;100.00
13732;BME280;6937;56.096;12.664;2023-01-26T08:55:30;101099.91;;;4.62;100.00
13732;BME280;6937;56.096;12.664;2023-01-26T08:57:57;101110.38;;;4.65;100.00
13732;BME280;6937;56.096;12.664;2023-01-26T09:00:23;101101.50;;;4.66;100.00
13732;BME280;6937;56.096;12.664;2023-01-26T09:02:50;101107.59;;;4.68;100.00
13732;BME280;6937;56.096;12.664;2023-01-26T09:05:21;101111.84;;;4.72;100.00
13732;BME280;6937;56.096;12.664;2023-01-26T09:07:47;101111.84;;;4.72;100.00
13732;BME280;6937;56.096;12.664;2023-01-26T09:10:12;101119.38;;;4.81;100.00
13732;BME280;6937;56.096;12.664;2023-01-26T09:12:37;101115.13;;;4.77;100.00
13732;BME280;6937;56.096;12.664;2023-01-26T09:15:03;101117.41;;;4.86;100.00
13732;BME280;6937;56.096;12.664;2023-01-26T09:17:29;101110.19;;;4.90;100.00
13732;BME280;6937;56.096;12.664;2023-01-26T09:19:54;101121.66;;;4.90;100.00
13732;BME280;6937;56.096;12.664;2023-01-26T09:22:20;101131.03;;;4.97;100.00
13732;BME280;6937;56.096;12.664;2023-01-26T09:24:45;101115.28;;;4.94;100.00
13732;BME280;6937;56.096;12.664;2023-01-26T09:27:10;101121.03;;;5.04;100.00
13732;BME280;6937;56.096;12.664;2023-01-26T09:29:36;101125.47;;;5.03;100.00
13732;BME280;6937;56.096;12.664;2023-01-26T09:32:01;101111.59;;;4.98;100.00
13732;BME280;6937;56.096;12.664;2023-01-26T09:34:26;101113.03;;;5.05;100.00
13732;BME280;6937;56.096;12.664;2023-01-26T09:36:52;101107.94;;;5.01;100.00
13732;BME280;6937;56.096;12.664;2023-01-26T09:39:18;101106.88;;;5.05;100.00
13732;BME280;6937;56.096;12.664;2023-01-26T09:42:53;101081.38;;;5.02;100.00
13732;BME280;6937;56.096;12.664;2023-01-26T09:45:03;101094.34;;;5.08;100.00
13732;BME280;6937;56.096;12.664;2023-01-26T09:50:18;101082.84;;;5.09;100.00
13732;BME280;6937;56.096;12.664;2023-01-26T09:53:01;100989.25;;;5.09;100.00
13732;BME280;6937;56.096;12.664;2023-01-26T09:55:28;101022.47;;;5.16;100.00
13732;BME280;6937;56.096;12.664;2023-01-26T09:58:02;101026.00;;;5.16;100.00
13732;BME280;6937;56.096;12.664;2023-01-26T10:00:39;101000.97;;;5.22;100.00
13732;BME280;6937;56.096;12.664;2023-01-26T10:03:28;100999.91;;;5.26;100.00
13732;BME280;6937;56.096;12.664;2023-01-26T10:06:45;101012.97;;;5.30;100.00
13732;BME280;6937;56.096;12.664;2023-01-26T10:09:14;101005.22;;;5.26;100.00
13732;BME280;6937;56.096;12.664;2023-01-26T10:11:44;101001.69;;;5.25;100.00
13732;BME280;6937;56.096;12.664;2023-01-26T10:16:55;101004.66;;;5.38;100.00
13732;BME280;6937;56.096;12.664;2023-01-26T10:19:54;100921.63;;;5.38;100.00
13732;BME280;6937;56.096;12.664;2023-01-26T10:22:43;100920.69;;;5.39;100.00
13732;BME280;6937;56.096;12.664;2023-01-26T10:25:29;100917.19;;;5.38;100.00
13732;BME280;6937;56.096;12.664;2023-01-26T10:27:57;100916.97;;;5.43;100.00
13732;BME280;6937;56.096;12.664;2023-01-26T10:30:23;100922.75;;;5.51;100.00
13732;BME280;6937;56.096;12.664;2023-01-26T10:32:50;100902.38;;;5.51;100.00
13732;BME280;6937;56.096;12.664;2023-01-26T10:35:22;100898.75;;;5.54;100.00
13732;BME280;6937;56.096;12.664;2023-01-26T10:37:48;100891.56;;;5.56;100.00
13732;BME280;6937;56.096;12.664;2023-01-26T10:40:16;100893.06;;;5.61;100.00
13732;BME280;6937;56.096;12.664;2023-01-26T10:42:53;100882.25;;;5.66;100.00
13732;BME280;6937;56.096;12.664;2023-01-26T10:50:26;100886.91;;;5.78;100.00
13732;BME280;6937;56.096;12.664;2023-01-26T10:53:00;100864.28;;;5.71;100.00
13732;BME280;6937;56.096;12.664;2023-01-26T10:55:26;100863.13;;;5.76;100.00
13732;BME280;6937;56.096;12.664;2023-01-26T10:57:52;100861.78;;;5.85;100.00
13732;BME280;6937;56.096;12.664;2023-01-26T11:02:52;100854.97;;;5.98;100.00
13732;BME280;6937;56.096;12.664;2023-01-26T11:05:20;100860.88;;;6.03;100.00
13732;BME280;6937;56.096;12.664;2023-01-26T11:07:49;100850.41;;;6.00;100.00
13732;BME280;6937;56.096;12.664;2023-01-26T11:10:30;100837.94;;;6.02;100.00
13732;BME280;6937;56.096;12.664;2023-01-26T11:13:16;100838.47;;;6.09;100.00
13732;BME280;6937;56.096;12.664;2023-01-26T11:15:45;100837.31;;;6.14;100.00
13732;BME280;6937;56.096;12.664;2023-01-26T11:18:27;100822.78;;;6.21;100.00
13732;BME280;6937;56.096;12.664;2023-01-26T11:28:55;100802.69;;;6.33;100.00
13732;BME280;6937;56.096;12.664;2023-01-26T11:34:54;100776.22;;;6.31;100.00
13732;BME280;6937;56.096;12.664;2023-01-26T11:37:37;100780.91;;;6.26;100.00
13732;BME280;6937;56.096;12.664;2023-01-26T11:50:33;100765.69;;;5.97;100.00
13732;BME280;6937;56.096;12.664;2023-01-26T11:56:28;100760.25;;;5.83;100.00
13732;BME280;6937;56.096;12.664;2023-01-26T11:59:08;100767.28;;;5.67;100.00
13732;BME280;6937;56.096;12.664;2023-01-26T12:01:43;100767.44;;;5.64;100.00
13732;BME280;6937;56.096;12.664;2023-01-26T12:04:20;100767.59;;;5.61;100.00
13732;BME280;6937;56.096;12.664;2023-01-26T12:06:51;100767.66;;;5.59;100.00
13732;BME280;6937;56.096;12.664;2023-01-26T12:09:33;100770.47;;;5.56;100.00
13732;BME280;6937;56.096;12.664;2023-01-26T12:17:34;100772.53;;;5.34;100.00
13732;BME280;6937;56.096;12.664;2023-01-26T12:27:58;100751.63;;;5.45;100.00
13732;BME280;6937;56.096;12.664;2023-01-26T12:33:02;100730.22;;;6.00;100.00
13732;BME280;6937;56.096;12.664;2023-01-26T12:35:40;100718.66;;;6.16;100.00
13732;BME280;6937;56.096;12.664;2023-01-26T12:41:19;100701.19;;;6.12;100.00
13732;BME280;6937;56.096;12.664;2023-01-26T12:44:18;100703.25;;;6.07;100.00
13732;BME280;6937;56.096;12.664;2023-01-26T12:46:43;100700.69;;;6.06;100.00
13732;BME280;6937;56.096;12.664;2023-01-26T12:49:12;100696.25;;;6.06;100.00
13732;BME280;6937;56.096;12.664;2023-01-26T12:51:43;100703.84;;;6.12;100.00
13732;BME280;6937;56.096;12.664;2023-01-26T12:54:37;100715.16;;;6.31;100.00
13732;BME280;6937;56.096;12.664;2023-01-26T12:57:12;100718.31;;;6.38;100.00
13732;BME280;6937;56.096;12.664;2023-01-26T12:59:40;100726.91;;;6.43;100.00
13732;BME280;6937;56.096;12.664;2023-01-26T13:04:42;100733.41;;;6.53;100.00
13732;BME280;6937;56.096;12.664;2023-01-26T13:07:43;100747.78;;;6.49;100.00
13732;BME280;6937;56.096;12.664;2023-01-26T13:12:47;100781.84;;;6.41;100.00
13732;BME280;6937;56.096;12.664;2023-01-26T13:15:15;100777.75;;;6.36;100.00
13732;BME280;6937;56.096;12.664;2023-01-26T13:17:48;100815.78;;;6.36;100.00
13732;BME280;6937;56.096;12.664;2023-01-26T13:20:22;100818.59;;;6.33;100.00
13732;BME280;6937;56.096;12.664;2023-01-26T13:22:48;100861.63;;;6.22;100.00
13732;BME280;6937;56.096;12.664;2023-01-26T13:25:31;100901.19;;;6.27;100.00
13732;BME280;6937;56.096;12.664;2023-01-26T13:28:02;100913.00;;;6.21;100.00
13732;BME280;6937;56.096;12.664;2023-01-26T13:30:33;100933.06;;;6.10;100.00
13732;BME280;6937;56.096;12.664;2023-01-26T13:33:22;100962.03;;;6.14;100.00
13732;BME280;6937;56.096;12.664;2023-01-26T13:35:49;100969.78;;;6.00;100.00
13732;BME280;6937;56.096;12.664;2023-01-26T13:38:21;101002.28;;;6.05;100.00
13732;BME280;6937;56.096;12.664;2023-01-26T13:40:50;101010.06;;;5.91;100.00
13732;BME280;6937;56.096;12.664;2023-01-26T13:43:18;101045.41;;;5.92;100.00
13732;BME280;6937;56.096;12.664;2023-01-26T13:46:08;101061.31;;;5.92;100.00
13732;BME280;6937;56.096;12.664;2023-01-26T13:48:51;101076.94;;;5.98;100.00
13732;BME280;6937;56.096;12.664;2023-01-26T13:51:23;101080.44;;;5.98;100.00
13732;BME280;6937;56.096;12.664;2023-01-26T13:54:02;101098.94;;;6.00;100.00
13732;BME280;6937;56.096;12.664;2023-01-26T13:56:31;101107.75;;;6.00;100.00
13732;BME280;6937;56.096;12.664;2023-01-26T14:01:39;101145.13;;;5.96;100.00
13732;BME280;6937;56.096;12.664;2023-01-26T14:04:08;101154.56;;;6.01;100.00
13732;BME280;6937;56.096;12.664;2023-01-26T14:06:37;101175.75;;;6.03;100.00
13732;BME280;6937;56.096;12.664;2023-01-26T14:09:03;101174.06;;;6.00;100.00
13732;BME280;6937;56.096;12.664;2023-01-26T14:11:31;101187.94;;;6.07;100.00
13732;BME280;6937;56.096;12.664;2023-01-26T14:13:59;101207.63;;;6.01;100.00